Aérodrome :
LOGIN :

S'inscrire | Disclaimer

   EN    FR    IT 

 










Légende :    VFR   VFR Marginal   IFR   IFR Intensif   IFR Très Intensif
Visi : 
Plafond : 
>= 8 km
>= 3000ft
5 à 8 km
1000 à 3000 ft
1500m à 5 km
500 à 1000 ft
800 à 1500m
200 à 500 ft
< 800m
< 200 ft
Symboles :   Orages  Brouillard  Fortes neiges  Fortes précipitations  Vent > 20 kt
SIGMETs :   Divers  Orages  Givrage  Turbulence  Onde Orograph.  Cendres Volcan.






- Altitude de l'aérodrome : 160 ft
- Code IATA : FMO


EDDG - Münster Osnabrück Int.

DERNIER METAR :
  • 210420Z 25003KT CAVOK 02/01 Q1015 NOSIG

METARs EXPIRÉS :
  • 210350Z VRB01KT CAVOK 03/01 Q1015 NOSIG
  • 210320Z 30002KT CAVOK 03/01 Q1015 NOSIG
  • 210250Z VRB01KT CAVOK 03/02 Q1015 NOSIG
  • 210220Z 28002KT CAVOK 03/02 Q1015 NOSIG
  • 210150Z 24001KT CAVOK 04/02 Q1015 NOSIG

TAF TAF EDDG
Valide du 21 à 00h jusqu'au 22 à 00h UTC


202300Z 2100/2124 VRB03KT CAVOK
TEMPO 2102/2107 3000 BCFG
PROB30
TEMPO 2103/2106 0800 FG
BECMG 2106/2109 32005KT
BECMG 2110/2113 34010KT
BECMG 2118/2121 34005KT



MET'MAP, la Météo Aéronautique d'un coup d'oeil ! - Copyright ORBIFLY Décembre 2007 - Disclaimer

ORBIFLY MET'MAP TEAM :

Programmation & Développement : Alexandra Zaïnal
Sur une idée originale de : Baudouin d'Aumeries
Assistance à la programmation : Marc-Olivier Méhu
Soutien technique & logistique : Manuel Goepfert

Contact : metmap@orbifly.com




SOURCES & CREDITS :

   NOAA